Terminal Aerodrome Forecast
Issued by NWS

Home | Current Version | Previous Version | Text Only | Print | Product List | Glossary Off
Versions: 1 2 3 4 5 6 7 8 9 10 11 12 13 14 15 16 17 18 19 20 21 22 23 24 25 26 27 28

000
FTUS42 KMHX 021408 AAB
TAFOAJ
TAF AMD
KOAJ 021408Z 0214/0312 22010KT P6SM BKN040
      TEMPO 0214/0216 BKN015
     FM021900 22011G18KT P6SM VCTS BKN040CB
     FM022300 19010KT P6SM BKN040
     FM030800 20007KT 6SM -SHRA SCT025 OVC040
      AMD LTD TO CLD VIS AND WIND=

USA.gov is the U.S. government's official web portal to all federal, state and local government web resources and services.